Time;durP1;ratioP1;P1;durP2;ratioP2;P2;SDS_P1;SDS_P2;PMS_P1;PMS_P2;Temp;Humidity;BMP_temperature;BMP_pressure;BME280_temperature;BME280_humidity;BME280_pressure;Samples;Min_cycle;Max_cycle;Signal;HPM_P1;HPM_P2
2022/02/26 00:00:45;;;;;;;3.62;0.80;;;;;;;8.04;36.66;100667.91;4456542;32;32982;-86
2022/02/26 00:03:13;;;;;;;2.90;0.80;;;;;;;8.12;36.38;100669.50;4456310;32;33462;-86
2022/02/26 00:05:43;;;;;;;2.28;0.70;;;;;;;7.85;37.59;100673.50;4451163;32;33396;-86
2022/02/26 00:08:12;;;;;;;5.28;1.12;;;;;;;8.04;37.17;100670.53;4471936;32;34066;-86
2022/02/26 00:10:39;;;;;;;1.10;0.80;;;;;;;8.14;37.19;100672.09;4460496;32;33165;-86
2022/02/26 00:13:07;;;;;;;5.97;1.40;;;;;;;8.20;37.18;100671.97;4455987;32;34583;-87
2022/02/26 00:15:34;;;;;;;1.02;0.85;;;;;;;7.78;37.51;100685.03;4447260;32;32211;-86
2022/02/26 00:18:04;;;;;;;3.83;1.08;;;;;;;7.70;37.17;100674.66;4444018;32;33283;-86
2022/02/26 00:20:31;;;;;;;2.85;1.48;;;;;;;7.34;37.76;100676.16;4455454;32;32803;-86
2022/02/26 00:22:59;;;;;;;1.42;0.68;;;;;;;7.71;37.49;100678.16;4465342;32;33472;-86
2022/02/26 00:25:26;;;;;;;2.87;1.25;;;;;;;7.66;36.71;100665.09;4461195;32;33128;-86
2022/02/26 00:27:54;;;;;;;2.33;0.85;;;;;;;7.75;35.89;100674.59;4461034;32;33468;-86
2022/02/26 00:30:22;;;;;;;1.92;0.80;;;;;;;7.84;35.18;100674.41;4458321;32;33902;-86
2022/02/26 00:32:50;;;;;;;2.65;0.60;;;;;;;7.87;35.05;100681.37;4456175;32;34546;-85
2022/02/26 00:35:18;;;;;;;0.45;0.35;;;;;;;7.79;34.79;100689.41;4445418;32;34031;-85
2022/02/26 00:37:45;;;;;;;2.17;0.52;;;;;;;7.59;35.27;100679.22;4457906;32;33553;-85
2022/02/26 00:40:13;;;;;;;2.55;0.80;;;;;;;7.79;34.93;100684.16;4455896;32;32794;-85
2022/02/26 00:47:10;;;;;;;2.92;1.33;;;;;;;7.63;35.52;100690.56;4477692;32;33341;-85
2022/02/26 00:49:47;;;;;;;0.85;0.75;;;;;;;7.73;34.94;100692.13;4482040;32;33018;-85
2022/02/26 00:52:21;;;;;;;0.77;0.50;;;;;;;7.40;35.82;100694.44;4455756;32;32303;-84
2022/02/26 00:54:50;;;;;;;1.50;0.55;;;;;;;7.76;34.78;100692.09;4457921;32;34258;-85
2022/02/26 00:57:18;;;;;;;1.17;0.90;;;;;;;7.78;34.80;100700.81;4453164;32;31922;-85
2022/02/26 00:59:46;;;;;;;3.67;0.98;;;;;;;7.60;35.03;100698.53;4449382;32;34290;-85
2022/02/26 01:02:17;;;;;;;1.90;0.60;;;;;;;7.61;34.76;100697.63;4427574;32;33838;-86
2022/02/26 01:04:46;;;;;;;0.52;0.43;;;;;;;7.48;35.40;100696.09;4440848;32;34757;-86
2022/02/26 01:07:14;;;;;;;3.20;1.33;;;;;;;7.61;35.65;100692.38;4453655;32;33955;-86
2022/02/26 01:09:42;;;;;;;0.82;0.45;;;;;;;7.96;34.65;100694.34;4452861;32;33980;-86
2022/02/26 01:12:11;;;;;;;1.35;0.70;;;;;;;7.77;35.66;100693.81;4441307;32;33996;-84
2022/02/26 01:14:39;;;;;;;1.50;0.93;;;;;;;8.04;34.22;100694.22;4447553;32;33239;-85
2022/02/26 01:17:08;;;;;;;2.40;0.50;;;;;;;8.15;34.28;100679.09;4453446;32;31899;-84
2022/02/26 01:19:36;;;;;;;3.45;0.88;;;;;;;7.91;34.23;100680.41;4457713;32;33770;-84
2022/02/26 01:22:08;;;;;;;3.20;0.65;;;;;;;8.04;34.71;100679.28;4450234;32;32641;-84
2022/02/26 01:24:38;;;;;;;1.00;0.60;;;;;;;8.08;34.47;100683.59;4445671;32;33860;-84
2022/02/26 01:27:05;;;;;;;2.03;0.70;;;;;;;8.13;34.12;100678.25;4440378;32;33691;-86
2022/02/26 01:29:35;;;;;;;5.45;0.70;;;;;;;8.08;33.87;100675.72;4432820;32;33791;-86
2022/02/26 01:32:04;;;;;;;1.20;0.80;;;;;;;7.87;34.71;100674.34;4446835;32;34210;-86
2022/02/26 01:35:12;;;;;;;3.35;0.65;;;;;;;7.85;34.82;100675.28;4446907;32;33114;-86
2022/02/26 01:37:42;;;;;;;1.65;0.73;;;;;;;7.94;34.36;100675.13;4462482;32;33119;-86
2022/02/26 01:40:10;;;;;;;1.20;0.55;;;;;;;7.93;34.49;100663.72;4436636;32;34002;-86
2022/02/26 01:42:43;;;;;;;1.05;0.60;;;;;;;7.21;36.76;100671.13;4429780;32;34407;-83
2022/02/26 01:45:13;;;;;;;3.80;1.15;;;;;;;7.69;34.88;100677.31;4451327;32;33150;-83
2022/02/26 01:47:41;;;;;;;5.10;1.00;;;;;;;7.56;35.50;100673.19;4445000;32;31632;-83
2022/02/26 01:50:11;;;;;;;2.40;0.77;;;;;;;7.83;34.71;100661.28;4452860;32;33839;-84
2022/02/26 01:52:40;;;;;;;0.65;0.50;;;;;;;7.52;35.42;100660.97;4450471;32;33942;-84
2022/02/26 01:55:08;;;;;;;1.48;0.77;;;;;;;7.52;35.52;100668.88;4455348;32;34805;-84
2022/02/26 01:57:36;;;;;;;2.47;0.93;;;;;;;7.66;35.22;100667.72;4450244;32;33586;-83
2022/02/26 02:00:06;;;;;;;2.50;0.70;;;;;;;7.63;35.74;100667.78;4439376;32;33743;-83
2022/02/26 02:02:34;;;;;;;2.97;1.17;;;;;;;7.54;35.88;100680.22;4454480;32;33851;-85
2022/02/26 02:05:03;;;;;;;2.60;0.65;;;;;;;7.70;35.11;100672.03;4455653;32;34087;-85
2022/02/26 02:07:31;;;;;;;4.90;1.10;;;;;;;7.50;35.62;100683.78;4448987;32;34073;-85
2022/02/26 02:09:58;;;;;;;1.42;0.65;;;;;;;7.09;36.91;100683.56;4433807;32;33105;-85
2022/02/26 02:16:18;;;;;;;4.18;0.80;;;;;;;7.30;36.73;100692.84;4453529;32;33510;-86
2022/02/26 02:18:46;;;;;;;2.28;0.88;;;;;;;6.97;37.60;100698.63;4446056;32;33067;-86
2022/02/26 02:21:15;;;;;;;3.35;1.08;;;;;;;7.24;37.28;100692.97;4449740;32;33484;-84
2022/02/26 02:23:43;;;;;;;2.40;1.10;;;;;;;7.16;38.08;100697.47;4436703;32;33548;-85
2022/02/26 02:26:11;;;;;;;3.10;1.58;;;;;;;7.32;38.14;100698.97;4444780;32;32730;-85
2022/02/26 02:28:40;;;;;;;4.65;1.15;;;;;;;7.09;38.64;100709.81;4457790;32;33567;-85
2022/02/26 02:31:08;;;;;;;3.58;1.23;;;;;;;7.30;38.43;100707.75;4436484;32;33889;-86
2022/02/26 02:33:45;;;;;;;7.60;1.33;;;;;;;7.09;39.01;100708.97;4452514;32;33034;-86
2022/02/26 02:36:13;;;;;;;6.05;1.62;;;;;;;6.84;39.39;100708.47;4462193;32;33931;-85
2022/02/26 02:38:41;;;;;;;2.90;1.33;;;;;;;6.93;39.37;100705.66;4437811;32;31698;-86
2022/02/26 02:41:09;;;;;;;2.33;1.20;;;;;;;6.98;39.50;100724.00;4441502;32;33163;-86
2022/02/26 02:43:36;;;;;;;2.87;1.40;;;;;;;6.82;39.63;100729.47;4437336;32;32631;-86
2022/02/26 02:46:05;;;;;;;2.22;1.58;;;;;;;6.49;40.54;100725.50;4450563;32;33926;-88
2022/02/26 02:48:33;;;;;;;4.47;1.73;;;;;;;6.68;40.00;100728.78;4437701;32;32501;-88
2022/02/26 02:51:01;;;;;;;6.28;1.70;;;;;;;6.58;40.32;100735.91;4442690;32;32451;-88
2022/02/26 02:53:29;;;;;;;1.92;1.33;;;;;;;6.54;40.43;100735.94;4434665;32;32862;-88
2022/02/26 02:55:57;;;;;;;4.47;1.98;;;;;;;6.53;40.47;100748.22;4460432;32;33802;-88
2022/02/26 02:58:26;;;;;;;4.93;2.78;;;;;;;6.54;40.56;100742.06;4452841;31;32497;-87
2022/02/26 03:00:56;;;;;;;9.50;2.78;;;;;;;6.04;41.98;100745.28;4465656;32;34502;-87
2022/02/26 03:03:26;;;;;;;6.45;2.95;;;;;;;6.09;42.06;100748.72;4470604;31;33867;-87
2022/02/26 03:05:54;;;;;;;6.87;2.45;;;;;;;5.93;42.54;100752.34;4447912;32;33111;-86
2022/02/26 03:08:24;;;;;;;3.87;2.22;;;;;;;5.97;42.35;100754.06;4460958;31;33071;-86
2022/02/26 03:10:52;;;;;;;5.82;2.50;;;;;;;6.08;42.12;100754.84;4460635;31;33787;-86
2022/02/26 03:13:21;;;;;;;4.30;1.87;;;;;;;6.13;41.87;100753.91;4470498;32;34000;-86
2022/02/26 03:15:51;;;;;;;11.45;2.58;;;;;;;6.01;42.17;100755.78;4462911;32;34030;-86
2022/02/26 03:18:19;;;;;;;5.47;2.12;;;;;;;5.89;42.45;100749.75;4458770;32;33848;-86
2022/02/26 03:20:47;;;;;;;4.28;1.92;;;;;;;5.92;42.50;100756.72;4459298;32;33651;-86
2022/02/26 03:23:15;;;;;;;5.40;2.20;;;;;;;5.60;43.12;100763.09;4459400;32;33747;-86
2022/02/26 03:25:44;;;;;;;4.93;1.90;;;;;;;5.57;43.38;100764.88;4457379;31;32931;-86
2022/02/26 03:28:12;;;;;;;5.03;1.83;;;;;;;5.25;44.18;100755.50;4459003;32;34209;-86
2022/02/26 03:30:40;;;;;;;5.62;2.53;;;;;;;5.23;44.53;100754.66;4459522;32;34704;-86
2022/02/26 03:33:07;;;;;;;3.10;2.00;;;;;;;5.24;44.40;100755.50;4465244;31;33083;-86
2022/02/26 03:35:39;;;;;;;3.90;2.15;;;;;;;4.90;44.93;100754.84;4455773;31;33353;-85
2022/02/26 03:38:08;;;;;;;4.18;1.90;;;;;;;4.83;45.37;100769.69;4462594;31;34315;-85
2022/02/26 03:40:36;;;;;;;6.87;2.97;;;;;;;4.83;45.34;100767.94;4462405;31;35097;-85
2022/02/26 03:43:04;;;;;;;14.30;4.80;;;;;;;5.05;44.83;100770.47;4458912;32;34227;-85
2022/02/26 03:45:32;;;;;;;9.07;3.60;;;;;;;4.99;44.97;100766.13;4466583;32;32950;-85
2022/02/26 03:48:00;;;;;;;13.23;4.03;;;;;;;5.18;44.50;100777.38;4458818;32;32734;-84
2022/02/26 03:50:28;;;;;;;10.75;3.83;;;;;;;4.94;45.27;100778.38;4458624;32;34611;-86
2022/02/26 03:52:56;;;;;;;11.40;3.72;;;;;;;4.94;45.37;100790.56;4472605;32;33867;-85
2022/02/26 03:55:24;;;;;;;7.18;3.20;;;;;;;5.00;45.51;100787.94;4461067;32;34228;-84
2022/02/26 03:57:51;;;;;;;4.75;2.25;;;;;;;4.81;45.93;100785.41;4470845;32;33797;-84
2022/02/26 04:00:19;;;;;;;4.32;2.15;;;;;;;4.61;46.57;100789.84;4471448;32;33837;-84
2022/02/26 04:02:47;;;;;;;6.05;2.70;;;;;;;4.63;46.93;100798.56;4463006;32;34727;-84
2022/02/26 04:05:15;;;;;;;4.22;2.53;;;;;;;4.80;46.28;100802.00;4467863;32;33613;-84
2022/02/26 04:07:44;;;;;;;3.12;1.70;;;;;;;4.73;46.31;100808.09;4472318;32;33004;-84
2022/02/26 04:10:12;;;;;;;3.28;1.67;;;;;;;4.83;45.78;100801.97;4458499;32;33437;-84
2022/02/26 04:12:39;;;;;;;2.62;1.60;;;;;;;4.69;45.32;100810.75;4454696;32;33108;-84
2022/02/26 04:15:08;;;;;;;2.72;1.58;;;;;;;4.28;47.02;100823.06;4460669;32;33800;-84
2022/02/26 04:17:36;;;;;;;5.32;1.80;;;;;;;4.61;45.38;100818.62;4458046;32;33220;-84
2022/02/26 04:20:04;;;;;;;3.00;1.10;;;;;;;4.71;45.24;100811.62;4458329;32;32581;-83
2022/02/26 04:22:32;;;;;;;5.60;1.20;;;;;;;4.52;45.23;100822.12;4459314;32;33848;-85
2022/02/26 04:25:01;;;;;;;4.62;1.60;;;;;;;5.01;43.51;100816.72;4460806;32;34766;-87
2022/02/26 04:27:28;;;;;;;3.17;1.77;;;;;;;4.93;44.17;100818.50;4474340;32;33597;-87
2022/02/26 04:29:56;;;;;;;2.12;1.00;;;;;;;5.13;43.92;100823.66;4457711;32;34610;-85
2022/02/26 04:32:41;;;;;;;4.53;1.12;;;;;;;5.18;43.64;100819.25;4463905;32;33700;-85
2022/02/26 04:35:10;;;;;;;2.97;1.45;;;;;;;5.14;44.10;100820.16;4457983;32;33581;-85
2022/02/26 04:37:37;;;;;;;3.35;1.48;;;;;;;5.17;43.83;100820.13;4450906;32;32826;-86
2022/02/26 04:40:07;;;;;;;2.80;1.52;;;;;;;5.39;43.42;100821.75;4457606;32;33121;-87
2022/02/26 04:42:35;;;;;;;3.05;1.27;;;;;;;5.51;43.58;100825.19;4451795;31;33257;-86
2022/02/26 04:45:02;;;;;;;2.20;1.50;;;;;;;5.53;43.50;100821.66;4459675;31;33572;-87
2022/02/26 04:47:30;;;;;;;1.92;1.33;;;;;;;5.35;43.80;100821.75;4460039;31;34009;-87
2022/02/26 04:49:57;;;;;;;2.17;1.40;;;;;;;5.10;44.26;100831.50;4464375;32;33874;-87
2022/02/26 04:52:25;;;;;;;6.40;1.70;;;;;;;5.28;44.09;100831.41;4465738;31;32550;-87
2022/02/26 04:54:53;;;;;;;5.80;2.12;;;;;;;5.34;44.04;100834.00;4457923;32;33702;-85
2022/02/26 04:57:21;;;;;;;3.90;1.67;;;;;;;5.35;44.39;100838.34;4458188;32;32981;-84
2022/02/26 04:59:48;;;;;;;5.93;2.05;;;;;;;5.18;44.90;100837.59;4463581;32;33835;-85
2022/02/26 05:02:16;;;;;;;8.02;1.80;;;;;;;5.32;44.85;100833.16;4458933;32;34184;-85
2022/02/26 05:04:44;;;;;;;4.05;1.62;;;;;;;5.38;44.30;100843.56;4451281;32;32802;-85
2022/02/26 05:07:13;;;;;;;3.00;1.80;;;;;;;5.03;45.01;100841.16;4462882;32;32984;-84
2022/02/26 05:09:42;;;;;;;3.20;1.70;;;;;;;4.90;45.58;100854.28;4472515;31;32584;-84
2022/02/26 05:12:10;;;;;;;3.55;1.75;;;;;;;4.93;45.47;100859.50;4454470;32;33302;-84
2022/02/26 05:14:38;;;;;;;6.28;1.62;;;;;;;5.02;45.50;100854.22;4463744;32;32973;-84
2022/02/26 05:17:05;;;;;;;6.28;1.92;;;;;;;4.86;45.91;100849.06;4459562;32;33125;-84
2022/02/26 05:19:33;;;;;;;3.85;2.05;;;;;;;4.79;45.87;100855.16;4476320;32;33446;-84
2022/02/26 05:22:01;;;;;;;4.87;2.33;;;;;;;4.70;46.08;100849.09;4471309;32;33955;-84
2022/02/26 05:24:28;;;;;;;2.95;2.00;;;;;;;4.71;46.15;100854.34;4460770;32;34635;-84
2022/02/26 05:30:23;;;;;;;5.05;2.15;;;;;;;4.69;46.95;100863.06;4485531;32;33652;-85
2022/02/26 05:32:50;;;;;;;6.40;2.97;;;;;;;4.66;46.79;100863.09;4460761;32;33022;-85
2022/02/26 05:35:17;;;;;;;4.95;2.08;;;;;;;4.73;46.87;100856.94;4458142;32;33783;-85
2022/02/26 05:37:45;;;;;;;8.23;2.60;;;;;;;4.78;46.61;100858.66;4459255;31;33217;-85
2022/02/26 05:40:13;;;;;;;4.78;2.45;;;;;;;4.43;48.03;100865.75;4459068;32;33041;-84
2022/02/26 05:42:41;;;;;;;5.37;1.98;;;;;;;4.53;47.83;100864.84;4450293;31;33405;-85
2022/02/26 05:45:11;;;;;;;4.55;2.20;;;;;;;4.43;47.59;100869.22;4474568;32;34507;-85
2022/02/26 05:47:39;;;;;;;3.05;2.00;;;;;;;4.55;47.39;100865.72;4451194;31;31929;-84
2022/02/26 05:50:07;;;;;;;4.47;2.28;;;;;;;4.74;46.65;100859.56;4465254;32;34394;-85
2022/02/26 05:52:35;;;;;;;3.97;2.40;;;;;;;4.51;47.60;100863.97;4458704;32;33343;-85
2022/02/26 05:55:02;;;;;;;2.62;1.73;;;;;;;4.50;47.90;100870.94;4451434;32;32647;-85
2022/02/26 05:57:30;;;;;;;6.43;2.25;;;;;;;4.46;47.77;100879.66;4471403;32;32996;-87
2022/02/26 05:59:58;;;;;;;3.65;1.83;;;;;;;4.61;47.28;100878.78;4458952;31;34144;-88
2022/02/26 06:02:25;;;;;;;8.70;2.55;;;;;;;4.55;47.28;100884.87;4466096;31;33361;-86
2022/02/26 06:04:54;;;;;;;6.43;3.15;;;;;;;4.26;48.16;100892.78;4471465;32;34585;-85
2022/02/26 06:07:21;;;;;;;4.30;2.58;;;;;;;4.37;47.72;100885.81;4459440;32;32550;-84
2022/02/26 06:09:49;;;;;;;6.00;2.97;;;;;;;4.56;47.67;100898.88;4460549;32;33600;-85
2022/02/26 06:12:19;;;;;;;11.07;3.12;;;;;;;3.98;49.38;100901.47;4473193;32;34014;-84
2022/02/26 06:14:46;;;;;;;5.30;2.78;;;;;;;4.25;49.04;100909.34;4464408;32;33590;-85
2022/02/26 06:17:14;;;;;;;3.80;2.22;;;;;;;4.41;48.40;100902.34;4455852;32;32308;-85
2022/02/26 06:19:41;;;;;;;4.95;2.37;;;;;;;4.43;48.13;100912.81;4472463;32;33906;-85
2022/02/26 06:22:09;;;;;;;6.55;3.22;;;;;;;4.54;47.90;100914.53;4459493;32;33989;-84
2022/02/26 06:24:36;;;;;;;5.03;2.80;;;;;;;4.93;47.13;100919.69;4449891;32;32844;-86
2022/02/26 06:27:04;;;;;;;3.50;2.30;;;;;;;4.88;47.17;100917.09;4457989;31;32376;-86
2022/02/26 06:29:32;;;;;;;6.00;2.78;;;;;;;5.23;45.79;100917.00;4458048;32;32815;-86
2022/02/26 06:31:59;;;;;;;4.90;2.83;;;;;;;5.09;46.37;100918.78;4458029;32;33377;-86
2022/02/26 06:34:28;;;;;;;5.80;2.33;;;;;;;5.00;46.68;100924.03;4459523;32;33923;-86
2022/02/26 06:36:56;;;;;;;4.57;2.35;;;;;;;5.05;47.23;100924.91;4471979;32;32605;-86
2022/02/26 06:39:26;;;;;;;5.28;2.60;;;;;;;5.09;46.63;100930.12;4471857;32;34677;-86
2022/02/26 06:41:55;;;;;;;3.08;2.37;;;;;;;5.14;46.30;100935.34;4466283;32;34734;-86
2022/02/26 06:44:23;;;;;;;5.62;2.87;;;;;;;5.63;45.04;100938.59;4472766;32;34621;-86
2022/02/26 06:46:51;;;;;;;5.60;2.33;;;;;;;5.60;44.73;100935.13;4461121;32;33192;-86
2022/02/26 06:49:19;;;;;;;5.72;2.60;;;;;;;5.64;45.11;100937.72;4468380;31;32324;-87
2022/02/26 06:51:46;;;;;;;4.60;2.65;;;;;;;5.74;44.54;100941.16;4460269;32;33665;-86
2022/02/26 06:54:14;;;;;;;5.05;3.03;;;;;;;5.73;44.65;100935.94;4467003;31;33752;-86
2022/02/26 06:56:42;;;;;;;10.13;3.28;;;;;;;5.71;44.71;100937.72;4458533;32;33121;-86
2022/02/26 06:59:10;;;;;;;6.35;3.22;;;;;;;5.78;44.47;100940.28;4466586;32;32718;-86
2022/02/26 07:01:37;;;;;;;6.93;2.80;;;;;;;5.94;44.19;100942.84;4447359;32;32932;-86
2022/02/26 07:04:05;;;;;;;4.75;3.05;;;;;;;5.97;44.06;100948.06;4459647;32;32678;-86
2022/02/26 07:06:34;;;;;;;4.62;3.03;;;;;;;6.08;43.81;100948.87;4453223;32;33201;-86
2022/02/26 07:09:02;;;;;;;9.93;3.55;;;;;;;6.11;43.98;100954.06;4456940;32;34156;-86
2022/02/26 07:11:29;;;;;;;5.82;3.28;;;;;;;6.04;43.99;100944.53;4469902;32;34819;-86
2022/02/26 07:13:57;;;;;;;7.07;3.05;;;;;;;6.21;43.82;100941.78;4444783;32;33385;-86
2022/02/26 07:16:25;;;;;;;4.50;2.62;;;;;;;6.04;44.48;100950.62;4452818;32;32695;-86
2022/02/26 07:18:53;;;;;;;5.53;3.28;;;;;;;6.29;44.03;100953.06;4456829;32;33188;-86
2022/02/26 07:21:21;;;;;;;7.85;2.67;;;;;;;6.39;43.52;100952.13;4471175;32;33499;-86
2022/02/26 07:23:48;;;;;;;5.30;2.50;;;;;;;6.37;43.95;100952.16;4475825;32;34180;-85
2022/02/26 07:26:16;;;;;;;5.68;2.33;;;;;;;6.57;42.87;100954.59;4457555;32;33203;-84
2022/02/26 07:28:44;;;;;;;5.55;3.10;;;;;;;6.46;43.68;100947.69;4468707;32;33286;-84
2022/02/26 07:31:11;;;;;;;6.07;2.60;;;;;;;6.43;44.29;100958.22;4443410;32;33017;-84
2022/02/26 07:33:39;;;;;;;8.90;2.35;;;;;;;6.55;43.63;100958.09;4458750;32;33779;-84
2022/02/26 07:36:08;;;;;;;5.55;2.40;;;;;;;6.65;43.12;100967.66;4459870;32;33685;-83
2022/02/26 07:38:36;;;;;;;3.72;2.03;;;;;;;6.91;42.85;100963.00;4458898;32;33799;-84
2022/02/26 07:41:06;;;;;;;3.08;1.98;;;;;;;7.01;42.64;100963.78;4467198;32;33966;-84
2022/02/26 07:43:35;;;;;;;4.70;2.30;;;;;;;7.09;41.48;100961.09;4457263;32;33446;-83
2022/02/26 07:46:05;;;;;;;4.57;2.42;;;;;;;7.21;41.40;100971.44;4468976;32;33294;-83
2022/02/26 07:48:34;;;;;;;4.43;1.85;;;;;;;7.56;40.63;100957.03;4458027;32;34164;-86
2022/02/26 07:51:02;;;;;;;7.97;2.55;;;;;;;7.29;41.07;100966.97;4463552;32;33572;-85
2022/02/26 07:53:29;;;;;;;4.32;2.25;;;;;;;7.52;41.23;100965.84;4450796;32;34298;-85
2022/02/26 07:55:57;;;;;;;4.65;2.35;;;;;;;7.46;41.43;100961.53;4462315;32;33116;-86
2022/02/26 07:58:25;;;;;;;10.85;3.00;;;;;;;7.82;40.61;100954.91;4463159;32;32795;-85
2022/02/26 08:00:53;;;;;;;4.93;2.58;;;;;;;7.76;40.66;100962.03;4452763;32;34035;-85
2022/02/26 08:03:21;;;;;;;5.85;2.45;;;;;;;7.72;40.53;100968.19;4463625;32;33599;-85
2022/02/26 08:05:51;;;;;;;4.20;1.95;;;;;;;7.95;40.64;100967.00;4472879;32;33106;-85
2022/02/26 08:08:19;;;;;;;6.70;2.35;;;;;;;8.07;39.88;100972.94;4463462;32;34226;-85
2022/02/26 08:10:47;;;;;;;4.68;2.25;;;;;;;8.16;39.91;100971.06;4471281;32;33547;-86
2022/02/26 08:13:18;;;;;;;6.87;2.63;;;;;;;7.98;39.80;100973.13;4451133;32;32485;-85
2022/02/26 08:15:51;;;;;;;5.90;2.42;;;;;;;8.36;38.89;100967.28;4457214;32;32124;-85
2022/02/26 08:18:18;;;;;;;10.38;3.70;;;;;;;8.29;39.19;100970.88;4470345;32;32850;-85
2022/02/26 08:20:46;;;;;;;8.38;4.07;;;;;;;8.20;39.48;100974.53;4469377;32;34028;-85
2022/02/26 08:23:14;;;;;;;5.97;3.08;;;;;;;8.25;39.44;100970.06;4468835;32;32968;-85
2022/02/26 08:25:41;;;;;;;4.40;1.90;;;;;;;8.38;39.61;100976.03;4458545;32;32687;-85
2022/02/26 08:28:09;;;;;;;5.68;2.25;;;;;;;8.49;39.10;100974.09;4455729;32;33737;-85
2022/02/26 08:30:37;;;;;;;3.40;1.98;;;;;;;8.82;37.97;100966.50;4469522;32;33569;-85
2022/02/26 08:33:05;;;;;;;4.97;2.15;;;;;;;8.92;37.80;100971.56;4450105;32;33315;-85
2022/02/26 08:35:33;;;;;;;3.97;2.35;;;;;;;9.21;37.30;100978.09;4460951;32;33863;-85
2022/02/26 08:38:01;;;;;;;5.80;2.55;;;;;;;9.35;37.46;100977.81;4459501;32;32515;-85
2022/02/26 08:40:31;;;;;;;5.03;2.00;;;;;;;9.35;37.46;100978.69;4445373;32;34813;-85
2022/02/26 08:43:01;;;;;;;9.50;2.55;;;;;;;9.15;38.21;100986.09;4455444;32;33460;-85
2022/02/26 08:45:35;;;;;;;3.37;1.90;;;;;;;9.70;36.77;100980.59;4458230;32;33355;-86
2022/02/26 08:48:04;;;;;;;4.82;2.20;;;;;;;9.91;36.99;100973.97;4468588;32;33629;-87
2022/02/26 08:50:31;;;;;;;4.68;2.60;;;;;;;9.99;36.38;100976.44;4455853;32;34763;-86
2022/02/26 08:52:59;;;;;;;7.72;2.30;;;;;;;9.37;37.74;100982.16;4458106;32;32580;-87
2022/02/26 08:55:27;;;;;;;4.35;2.03;;;;;;;9.74;36.15;100976.13;4458882;32;32057;-85
2022/02/26 08:57:54;;;;;;;5.07;1.90;;;;;;;10.04;35.76;100981.63;4469126;32;34590;-85
2022/02/26 09:00:22;;;;;;;4.72;1.85;;;;;;;9.99;34.56;100976.44;4463298;32;32215;-85
2022/02/26 09:02:51;;;;;;;4.68;2.15;;;;;;;9.64;37.05;100985.16;4470606;32;33923;-85
2022/02/26 09:05:19;;;;;;;4.00;1.65;;;;;;;9.57;37.09;100983.50;4469230;32;33468;-86
2022/02/26 09:07:46;;;;;;;4.75;2.35;;;;;;;9.97;34.95;100976.50;4468305;32;33660;-86
2022/02/26 09:10:14;;;;;;;5.45;1.75;;;;;;;10.62;34.63;100967.91;4471233;32;34483;-86
2022/02/26 09:12:42;;;;;;;5.28;1.62;;;;;;;10.46;34.35;100979.78;4468644;32;33804;-86
2022/02/26 09:15:11;;;;;;;5.53;1.33;;;;;;;10.64;33.48;100981.09;4455328;32;32531;-85
2022/02/26 09:17:40;;;;;;;3.10;1.67;;;;;;;11.00;33.94;100976.63;4461866;32;34021;-85
2022/02/26 09:20:10;;;;;;;4.30;1.77;;;;;;;11.25;33.74;100984.75;4468780;32;34499;-86
2022/02/26 09:22:38;;;;;;;3.50;1.58;;;;;;;10.79;33.29;100979.84;4458402;32;34214;-86
2022/02/26 09:25:07;;;;;;;2.80;1.55;;;;;;;10.62;32.77;100982.91;4459505;32;33267;-86
2022/02/26 09:27:35;;;;;;;3.65;1.95;;;;;;;10.58;32.46;100982.09;4458947;32;33897;-85
2022/02/26 09:30:04;;;;;;;6.82;2.05;;;;;;;10.46;34.91;100978.00;4470676;32;34186;-86
2022/02/26 09:32:33;;;;;;;4.32;1.87;;;;;;;11.39;33.08;100972.00;4447205;32;33326;-86
2022/02/26 09:35:00;;;;;;;2.85;1.45;;;;;;;11.63;30.20;100981.06;4463540;32;32144;-86
2022/02/26 09:37:28;;;;;;;4.45;1.77;;;;;;;11.24;31.49;100980.38;4445718;32;32999;-86
2022/02/26 09:39:58;;;;;;;2.85;1.62;;;;;;;11.10;31.06;100974.59;4457335;32;33057;-86
2022/02/26 09:42:27;;;;;;;4.12;1.65;;;;;;;11.32;30.62;100981.03;4454681;32;32665;-86
2022/02/26 09:44:56;;;;;;;4.65;2.45;;;;;;;11.88;30.62;100985.66;4454956;32;32219;-86
2022/02/26 09:47:24;;;;;;;4.55;1.30;;;;;;;11.75;30.10;100987.75;4457804;32;33525;-86
2022/02/26 09:49:52;;;;;;;4.35;1.33;;;;;;;11.27;30.74;100982.94;4473410;32;33691;-86
2022/02/26 09:52:23;;;;;;;3.37;1.30;;;;;;;11.54;30.93;100982.19;4460167;32;33730;-86
2022/02/26 09:54:52;;;;;;;4.90;1.83;;;;;;;11.56;29.79;100989.19;4471372;32;32428;-86
2022/02/26 09:57:25;;;;;;;2.37;1.45;;;;;;;11.54;29.18;100992.75;4473066;31;34595;-86
2022/02/26 09:59:54;;;;;;;2.30;1.40;;;;;;;10.82;31.30;100996.47;4463289;31;32662;-86
2022/02/26 10:02:34;;;;;;;4.60;1.75;;;;;;;11.30;30.65;100998.75;4465369;31;33083;-86
2022/02/26 10:05:07;;;;;;;3.72;1.80;;;;;;;11.58;30.61;100995.28;4472457;32;33450;-86
2022/02/26 10:07:35;;;;;;;3.65;1.42;;;;;;;11.66;30.83;100998.59;4473424;32;33198;-86
2022/02/26 10:10:08;;;;;;;3.15;1.60;;;;;;;11.75;32.26;100995.69;4464679;32;32925;-86
2022/02/26 10:12:36;;;;;;;3.03;1.80;;;;;;;11.59;30.13;101005.00;4470673;31;32858;-86
2022/02/26 10:15:07;;;;;;;3.92;1.33;;;;;;;11.36;30.83;101003.84;4458900;32;33418;-86
2022/02/26 10:17:38;;;;;;;4.22;1.62;;;;;;;10.87;30.54;101007.81;4462780;31;33818;-86
2022/02/26 10:20:17;;;;;;;4.53;2.27;;;;;;;11.15;30.24;101007.94;4453437;32;32991;-86
2022/02/26 10:22:52;;;;;;;3.53;1.77;;;;;;;11.00;30.80;101005.69;4470947;32;34083;-86
2022/02/26 10:25:28;;;;;;;5.70;2.10;;;;;;;11.31;30.97;101011.03;4461851;31;32744;-86
2022/02/26 10:27:58;;;;;;;2.83;1.60;;;;;;;11.57;30.86;101001.50;4454131;31;33187;-85
2022/02/26 10:30:28;;;;;;;2.90;1.90;;;;;;;11.97;31.33;101001.25;4470572;32;34053;-86
2022/02/26 10:33:26;;;;;;;5.95;1.77;;;;;;;11.91;30.02;101002.28;4450581;32;33231;-85
2022/02/26 10:35:59;;;;;;;4.20;1.12;;;;;;;11.76;29.37;101002.69;4459082;31;32925;-86
2022/02/26 10:38:27;;;;;;;;;;;;;;;12.27;29.04;101000.28;4475318;31;33626;-86
2022/02/26 10:41:08;;;;;;;4.65;1.42;;;;;;;12.02;28.39;100997.53;4463229;32;34725;-86
2022/02/26 10:43:44;;;;;;;5.30;1.83;;;;;;;12.12;28.92;100997.25;4465869;32;32877;-86
2022/02/26 10:46:15;;;;;;;2.22;1.67;;;;;;;11.86;29.24;100998.91;4463216;32;33382;-86
2022/02/26 10:48:44;;;;;;;5.20;1.55;;;;;;;11.81;30.63;101000.78;4486648;31;33839;-86
2022/02/26 10:51:18;;;;;;;2.12;1.40;;;;;;;11.67;32.01;101002.97;4474585;31;33621;-86
2022/02/26 10:53:47;;;;;;;3.70;1.90;;;;;;;11.92;31.06;101004.03;4473605;32;33443;-85
2022/02/26 10:56:15;;;;;;;4.60;1.95;;;;;;;12.44;30.57;100997.13;4473693;31;33367;-84
2022/02/26 10:58:43;;;;;;;6.95;2.83;;;;;;;12.52;28.29;100989.75;4472768;31;34221;-86
2022/02/26 11:01:18;;;;;;;5.40;2.67;;;;;;;12.48;28.57;100981.97;4468819;32;33709;-84
2022/02/26 11:03:46;;;;;;;2.90;2.00;;;;;;;12.45;29.79;100980.28;4467629;31;31067;-86
2022/02/26 11:06:14;;;;;;;5.35;1.92;;;;;;;12.84;28.78;100982.53;4469388;32;32166;-84
2022/02/26 11:08:44;;;;;;;4.07;1.50;;;;;;;13.58;26.96;100979.03;4458079;32;32419;-85
2022/02/26 11:11:12;;;;;;;4.97;2.35;;;;;;;14.13;25.68;100980.47;4460899;32;34253;-86
2022/02/26 11:13:42;;;;;;;5.32;1.60;;;;;;;13.91;26.27;100976.00;4462351;32;32988;-85
2022/02/26 11:16:12;;;;;;;2.87;1.80;;;;;;;13.90;26.40;100976.91;4468579;32;32399;-85
2022/02/26 11:18:45;;;;;;;2.50;1.42;;;;;;;13.79;26.55;100976.47;4451112;32;32694;-85
2022/02/26 11:21:16;;;;;;;3.22;1.80;;;;;;;13.66;26.80;100975.19;4471088;32;33462;-86
2022/02/26 11:23:49;;;;;;;3.50;1.42;;;;;;;13.57;27.07;100966.66;4464089;32;33766;-86
2022/02/26 11:26:19;;;;;;;3.37;1.75;;;;;;;13.32;28.86;100981.75;4486069;31;33443;-86
2022/02/26 11:28:57;;;;;;;4.82;1.77;;;;;;;13.87;25.64;100963.78;4459077;32;33230;-85
2022/02/26 11:31:27;;;;;;;2.10;1.73;;;;;;;13.41;26.59;100975.25;4454295;31;32587;-85
2022/02/26 11:33:55;;;;;;;2.00;1.58;;;;;;;12.73;27.80;100966.13;4460852;31;33903;-85
2022/02/26 11:36:23;;;;;;;3.08;1.67;;;;;;;12.13;28.34;100965.44;4471371;31;33335;-86
2022/02/26 11:38:56;;;;;;;3.65;2.05;;;;;;;11.89;29.16;100969.72;4471607;32;33679;-85
2022/02/26 11:41:30;;;;;;;3.70;1.45;;;;;;;12.51;28.14;100963.31;4463171;31;33229;-86
2022/02/26 11:43:59;;;;;;;4.93;1.30;;;;;;;12.79;28.05;100963.25;4459446;32;32905;-86
2022/02/26 11:46:29;;;;;;;3.50;1.30;;;;;;;12.78;27.37;100953.59;4471085;32;33144;-88
2022/02/26 11:48:58;;;;;;;6.68;3.00;;;;;;;12.88;26.99;100954.12;4457932;32;34014;-86
2022/02/26 11:51:34;;;;;;;2.60;1.58;;;;;;;12.90;27.72;100953.16;4456917;32;33251;-85